sensor_id;sensor_type;location;lat;lon;timestamp;pressure;altitude;pressure_sealevel;temperature;humidity
76603;BME280;65075;48.390;17.598;2024-02-21T00:00:15;100629.25;;;9.72;61.32
76603;BME280;65075;48.390;17.598;2024-02-21T00:02:42;100618.84;;;10.32;58.71
76603;BME280;65075;48.390;17.598;2024-02-21T00:05:08;100621.50;;;10.04;60.22
76603;BME280;65075;48.390;17.598;2024-02-21T00:07:35;100629.25;;;9.84;60.59
76603;BME280;65075;48.390;17.598;2024-02-21T00:10:02;100571.41;;;9.82;59.68
76603;BME280;65075;48.390;17.598;2024-02-21T00:12:31;100605.03;;;9.88;59.95
76603;BME280;65075;48.390;17.598;2024-02-21T00:14:58;100626.72;;;11.85;55.64
76603;BME280;65075;48.390;17.598;2024-02-21T00:17:25;100609.38;;;10.80;57.15
76603;BME280;65075;48.390;17.598;2024-02-21T00:19:52;100624.16;;;11.62;55.50
76603;BME280;65075;48.390;17.598;2024-02-21T00:22:19;100598.91;;;11.55;54.83
76603;BME280;65075;48.390;17.598;2024-02-21T00:24:45;100623.75;;;11.20;56.53
76603;BME280;65075;48.390;17.598;2024-02-21T00:27:12;100623.75;;;11.54;55.56
76603;BME280;65075;48.390;17.598;2024-02-21T00:29:39;100621.38;;;11.24;55.65
76603;BME280;65075;48.390;17.598;2024-02-21T00:32:05;100622.00;;;11.31;56.66
76603;BME280;65075;48.390;17.598;2024-02-21T00:34:32;100602.16;;;10.29;58.36
76603;BME280;65075;48.390;17.598;2024-02-21T00:37:00;100621.59;;;10.61;58.55
76603;BME280;65075;48.390;17.598;2024-02-21T00:39:25;100621.31;;;11.90;55.97
76603;BME280;65075;48.390;17.598;2024-02-21T00:41:52;100586.91;;;9.93;59.83
76603;BME280;65075;48.390;17.598;2024-02-21T00:44:19;100610.72;;;10.49;59.46
76603;BME280;65075;48.390;17.598;2024-02-21T00:46:46;100625.09;;;10.73;58.49
76603;BME280;65075;48.390;17.598;2024-02-21T00:49:14;100605.34;;;10.54;58.74
76603;BME280;65075;48.390;17.598;2024-02-21T00:51:40;100572.91;;;10.01;60.22
76603;BME280;65075;48.390;17.598;2024-02-21T00:54:07;100612.06;;;11.25;56.99
76603;BME280;65075;48.390;17.598;2024-02-21T00:56:34;100588.03;;;11.77;55.32
76603;BME280;65075;48.390;17.598;2024-02-21T00:59:01;100599.50;;;11.24;56.42
76603;BME280;65075;48.390;17.598;2024-02-21T01:01:28;100597.50;;;10.86;58.32
76603;BME280;65075;48.390;17.598;2024-02-21T01:03:55;100572.69;;;10.59;58.64
76603;BME280;65075;48.390;17.598;2024-02-21T01:06:22;100587.41;;;11.20;56.24
76603;BME280;65075;48.390;17.598;2024-02-21T01:08:50;100600.31;;;11.08;58.52
76603;BME280;65075;48.390;17.598;2024-02-21T01:11:17;100539.69;;;11.61;54.63
76603;BME280;65075;48.390;17.598;2024-02-21T01:13:44;100581.66;;;10.71;58.50
76603;BME280;65075;48.390;17.598;2024-02-21T01:16:11;100592.81;;;11.86;56.33
76603;BME280;65075;48.390;17.598;2024-02-21T01:18:38;100600.59;;;10.61;58.59
76603;BME280;65075;48.390;17.598;2024-02-21T01:21:07;100544.22;;;10.83;57.22
76603;BME280;65075;48.390;17.598;2024-02-21T01:23:35;100584.25;;;11.44;56.33
76603;BME280;65075;48.390;17.598;2024-02-21T01:26:03;100599.31;;;11.14;57.23
76603;BME280;65075;48.390;17.598;2024-02-21T01:28:30;100582.78;;;11.04;57.16
76603;BME280;65075;48.390;17.598;2024-02-21T01:30:56;100593.44;;;10.88;57.92
76603;BME280;65075;48.390;17.598;2024-02-21T01:33:22;100594.22;;;12.11;53.19
76603;BME280;65075;48.390;17.598;2024-02-21T01:35:49;100598.19;;;11.10;56.77
76603;BME280;65075;48.390;17.598;2024-02-21T01:38:16;100550.31;;;10.74;57.50
76603;BME280;65075;48.390;17.598;2024-02-21T01:40:43;100586.91;;;10.73;57.97
76603;BME280;65075;48.390;17.598;2024-02-21T01:43:17;100592.38;;;12.16;54.27
76603;BME280;65075;48.390;17.598;2024-02-21T01:45:49;100588.94;;;11.66;54.75
76603;BME280;65075;48.390;17.598;2024-02-21T01:48:18;100576.22;;;10.43;58.47
76603;BME280;65075;48.390;17.598;2024-02-21T01:50:52;100587.75;;;11.07;57.12
76603;BME280;65075;48.390;17.598;2024-02-21T01:53:38;100590.22;;;11.08;57.53
76603;BME280;65075;48.390;17.598;2024-02-21T01:56:08;100577.84;;;9.18;63.25
76603;BME280;65075;48.390;17.598;2024-02-21T01:58:36;100577.47;;;9.72;62.07
76603;BME280;65075;48.390;17.598;2024-02-21T02:01:04;100566.41;;;9.91;61.82
76603;BME280;65075;48.390;17.598;2024-02-21T02:03:34;100584.81;;;10.35;61.19
76603;BME280;65075;48.390;17.598;2024-02-21T02:06:00;100578.59;;;10.84;59.70
76603;BME280;65075;48.390;17.598;2024-02-21T02:08:28;100561.19;;;10.01;61.03
76603;BME280;65075;48.390;17.598;2024-02-21T02:10:55;100559.63;;;10.89;59.74
76603;BME280;65075;48.390;17.598;2024-02-21T02:13:22;100563.19;;;11.78;56.71
76603;BME280;65075;48.390;17.598;2024-02-21T02:15:50;100555.69;;;12.39;54.67
76603;BME280;65075;48.390;17.598;2024-02-21T02:18:19;100553.88;;;11.41;57.19
76603;BME280;65075;48.390;17.598;2024-02-21T02:20:47;100555.75;;;11.57;57.10
76603;BME280;65075;48.390;17.598;2024-02-21T02:23:28;100580.13;;;10.75;59.45
76603;BME280;65075;48.390;17.598;2024-02-21T02:25:53;100441.78;;;10.03;59.67
76603;BME280;65075;48.390;17.598;2024-02-21T02:28:21;100524.78;;;9.55;62.25
76603;BME280;65075;48.390;17.598;2024-02-21T02:30:47;100552.31;;;9.82;63.17
76603;BME280;65075;48.390;17.598;2024-02-21T02:33:14;100560.22;;;10.07;62.43
76603;BME280;65075;48.390;17.598;2024-02-21T02:35:40;100550.63;;;9.41;64.39
76603;BME280;65075;48.390;17.598;2024-02-21T02:38:07;100560.50;;;9.70;64.08
76603;BME280;65075;48.390;17.598;2024-02-21T02:40:34;100547.75;;;9.36;63.86
76603;BME280;65075;48.390;17.598;2024-02-21T02:43:01;100523.13;;;9.54;64.34
76603;BME280;65075;48.390;17.598;2024-02-21T02:45:28;100533.56;;;10.37;61.46
76603;BME280;65075;48.390;17.598;2024-02-21T02:48:01;100549.84;;;9.81;63.34
76603;BME280;65075;48.390;17.598;2024-02-21T02:50:28;100558.69;;;10.39;61.05
76603;BME280;65075;48.390;17.598;2024-02-21T02:52:55;100504.53;;;9.40;63.19
76603;BME280;65075;48.390;17.598;2024-02-21T02:55:22;100548.53;;;9.83;62.43
76603;BME280;65075;48.390;17.598;2024-02-21T02:57:47;100504.31;;;10.99;58.94
76603;BME280;65075;48.390;17.598;2024-02-21T03:00:15;100545.81;;;10.51;60.71
76603;BME280;65075;48.390;17.598;2024-02-21T03:02:46;100559.50;;;10.84;58.80
76603;BME280;65075;48.390;17.598;2024-02-21T03:05:19;100551.84;;;10.53;59.92
76603;BME280;65075;48.390;17.598;2024-02-21T03:07:46;100545.53;;;10.64;59.24
76603;BME280;65075;48.390;17.598;2024-02-21T03:10:14;100551.19;;;10.18;60.92
76603;BME280;65075;48.390;17.598;2024-02-21T03:12:43;100544.44;;;10.09;61.41
76603;BME280;65075;48.390;17.598;2024-02-21T03:15:09;100552.56;;;10.93;58.91
76603;BME280;65075;48.390;17.598;2024-02-21T03:17:35;100537.69;;;11.56;57.68
76603;BME280;65075;48.390;17.598;2024-02-21T03:20:04;100532.31;;;10.89;59.25
76603;BME280;65075;48.390;17.598;2024-02-21T03:22:36;100498.38;;;9.96;60.62
76603;BME280;65075;48.390;17.598;2024-02-21T03:25:03;100539.09;;;11.04;58.96
76603;BME280;65075;48.390;17.598;2024-02-21T03:27:30;100536.81;;;10.11;61.28
76603;BME280;65075;48.390;17.598;2024-02-21T03:29:56;100518.47;;;11.51;56.11
76603;BME280;65075;48.390;17.598;2024-02-21T03:32:23;100532.31;;;10.89;57.99
76603;BME280;65075;48.390;17.598;2024-02-21T03:34:50;100530.03;;;10.25;60.42
76603;BME280;65075;48.390;17.598;2024-02-21T03:37:17;100538.81;;;10.55;59.38
76603;BME280;65075;48.390;17.598;2024-02-21T03:39:43;100518.44;;;11.46;57.08
76603;BME280;65075;48.390;17.598;2024-02-21T03:42:09;100526.81;;;11.78;54.59
76603;BME280;65075;48.390;17.598;2024-02-21T03:44:35;100526.06;;;11.27;56.33
76603;BME280;65075;48.390;17.598;2024-02-21T03:47:02;100527.66;;;12.80;52.94
76603;BME280;65075;48.390;17.598;2024-02-21T03:49:29;100501.78;;;12.66;51.33
76603;BME280;65075;48.390;17.598;2024-02-21T03:51:56;100517.94;;;12.68;53.39
76603;BME280;65075;48.390;17.598;2024-02-21T03:54:23;100536.53;;;11.90;55.32
76603;BME280;65075;48.390;17.598;2024-02-21T03:56:49;100532.91;;;11.85;54.21
76603;BME280;65075;48.390;17.598;2024-02-21T03:59:16;100529.72;;;11.00;57.29
76603;BME280;65075;48.390;17.598;2024-02-21T04:01:43;100506.13;;;11.10;55.61
76603;BME280;65075;48.390;17.598;2024-02-21T04:04:10;100517.09;;;11.48;55.67
76603;BME280;65075;48.390;17.598;2024-02-21T04:06:46;100528.50;;;12.81;52.51
76603;BME280;65075;48.390;17.598;2024-02-21T04:09:12;100519.53;;;13.69;49.45
76603;BME280;65075;48.390;17.598;2024-02-21T04:11:39;100534.84;;;13.65;48.48
76603;BME280;65075;48.390;17.598;2024-02-21T04:14:06;100532.38;;;11.66;54.59
76603;BME280;65075;48.390;17.598;2024-02-21T04:16:34;100526.94;;;9.30;62.21
76603;BME280;65075;48.390;17.598;2024-02-21T04:19:01;100523.56;;;9.74;61.83
76603;BME280;65075;48.390;17.598;2024-02-21T04:21:29;100517.88;;;10.44;59.83
76603;BME280;65075;48.390;17.598;2024-02-21T04:23:55;100519.56;;;9.54;61.06
76603;BME280;65075;48.390;17.598;2024-02-21T04:26:22;100489.38;;;12.27;53.95
76603;BME280;65075;48.390;17.598;2024-02-21T04:28:49;100516.19;;;13.62;49.84
76603;BME280;65075;48.390;17.598;2024-02-21T04:31:15;100523.69;;;11.14;56.45
76603;BME280;65075;48.390;17.598;2024-02-21T04:33:41;100525.50;;;9.39;61.26
76603;BME280;65075;48.390;17.598;2024-02-21T04:36:08;100501.34;;;9.19;62.52
76603;BME280;65075;48.390;17.598;2024-02-21T04:38:35;100511.91;;;9.79;60.89
76603;BME280;65075;48.390;17.598;2024-02-21T04:41:03;100487.91;;;9.13;62.73
76603;BME280;65075;48.390;17.598;2024-02-21T04:43:30;100500.97;;;11.47;56.32
76603;BME280;65075;48.390;17.598;2024-02-21T04:45:55;100511.47;;;11.77;54.39
76603;BME280;65075;48.390;17.598;2024-02-21T04:48:22;100514.22;;;11.77;55.82
76603;BME280;65075;48.390;17.598;2024-02-21T04:50:49;100514.16;;;13.42;50.91
76603;BME280;65075;48.390;17.598;2024-02-21T04:53:15;100492.59;;;10.99;56.36
76603;BME280;65075;48.390;17.598;2024-02-21T04:55:42;100518.47;;;12.96;51.08
76603;BME280;65075;48.390;17.598;2024-02-21T04:58:09;100489.66;;;12.03;52.67
76603;BME280;65075;48.390;17.598;2024-02-21T05:00:35;100513.44;;;12.83;51.76
76603;BME280;65075;48.390;17.598;2024-02-21T05:03:01;100519.78;;;10.15;57.56
76603;BME280;65075;48.390;17.598;2024-02-21T05:05:29;100519.97;;;11.04;56.18
76603;BME280;65075;48.390;17.598;2024-02-21T05:07:56;100512.34;;;13.58;49.74
76603;BME280;65075;48.390;17.598;2024-02-21T05:10:24;100511.50;;;13.52;49.50
76603;BME280;65075;48.390;17.598;2024-02-21T05:12:50;100463.94;;;12.58;50.28
76603;BME280;65075;48.390;17.598;2024-02-21T05:15:17;100500.97;;;12.97;51.12
76603;BME280;65075;48.390;17.598;2024-02-21T05:17:42;100509.03;;;12.50;51.39
76603;BME280;65075;48.390;17.598;2024-02-21T05:20:10;100491.53;;;11.38;54.80
76603;BME280;65075;48.390;17.598;2024-02-21T05:22:37;100508.50;;;11.62;54.22
76603;BME280;65075;48.390;17.598;2024-02-21T05:25:04;100510.72;;;9.87;57.97
76603;BME280;65075;48.390;17.598;2024-02-21T05:27:31;100458.34;;;9.45;59.58
76603;BME280;65075;48.390;17.598;2024-02-21T05:29:58;100520.56;;;9.76;59.12
76603;BME280;65075;48.390;17.598;2024-02-21T05:32:25;100489.09;;;8.41;63.21
76603;BME280;65075;48.390;17.598;2024-02-21T05:34:52;100516.53;;;9.04;63.22
76603;BME280;65075;48.390;17.598;2024-02-21T05:37:18;100480.75;;;9.35;59.90
76603;BME280;65075;48.390;17.598;2024-02-21T05:39:45;100472.13;;;10.06;59.27
76603;BME280;65075;48.390;17.598;2024-02-21T05:42:12;100484.41;;;12.24;51.95
76603;BME280;65075;48.390;17.598;2024-02-21T05:44:37;100485.00;;;9.43;60.05
76603;BME280;65075;48.390;17.598;2024-02-21T05:47:04;100511.28;;;8.91;61.88
76603;BME280;65075;48.390;17.598;2024-02-21T05:49:31;100524.19;;;9.42;61.04
76603;BME280;65075;48.390;17.598;2024-02-21T05:51:58;100500.03;;;10.25;57.46
76603;BME280;65075;48.390;17.598;2024-02-21T05:54:25;100526.09;;;9.53;59.84
76603;BME280;65075;48.390;17.598;2024-02-21T05:56:52;100494.41;;;10.76;56.75
76603;BME280;65075;48.390;17.598;2024-02-21T05:59:20;100534.72;;;9.61;60.59
76603;BME280;65075;48.390;17.598;2024-02-21T06:01:58;100480.06;;;12.28;51.94
76603;BME280;65075;48.390;17.598;2024-02-21T06:04:25;100511.88;;;11.85;52.82
76603;BME280;65075;48.390;17.598;2024-02-21T06:06:52;100504.66;;;12.49;51.39
76603;BME280;65075;48.390;17.598;2024-02-21T06:09:17;100502.50;;;11.05;53.84
76603;BME280;65075;48.390;17.598;2024-02-21T06:11:43;100507.00;;;11.49;52.27
76603;BME280;65075;48.390;17.598;2024-02-21T06:14:09;100505.44;;;11.75;52.64
76603;BME280;65075;48.390;17.598;2024-02-21T06:16:36;100499.28;;;12.33;51.21
76603;BME280;65075;48.390;17.598;2024-02-21T06:19:03;100494.34;;;12.30;50.50
76603;BME280;65075;48.390;17.598;2024-02-21T06:21:30;100503.09;;;12.32;50.63
76603;BME280;65075;48.390;17.598;2024-02-21T06:23:56;100499.84;;;10.60;55.97
76603;BME280;65075;48.390;17.598;2024-02-21T06:26:23;100500.97;;;11.47;53.58
76603;BME280;65075;48.390;17.598;2024-02-21T06:28:48;100493.47;;;10.09;57.23
76603;BME280;65075;48.390;17.598;2024-02-21T06:31:15;100495.03;;;11.17;54.20
76603;BME280;65075;48.390;17.598;2024-02-21T06:33:42;100495.91;;;12.26;51.33
76603;BME280;65075;48.390;17.598;2024-02-21T06:36:09;100501.84;;;12.18;51.67
76603;BME280;65075;48.390;17.598;2024-02-21T06:38:36;100502.53;;;12.30;50.83
76603;BME280;65075;48.390;17.598;2024-02-21T06:41:03;100500.81;;;11.75;51.91
76603;BME280;65075;48.390;17.598;2024-02-21T06:43:30;100507.59;;;11.94;52.71
76603;BME280;65075;48.390;17.598;2024-02-21T06:45:56;100504.03;;;13.43;48.41
76603;BME280;65075;48.390;17.598;2024-02-21T06:48:25;100478.22;;;11.63;51.87
76603;BME280;65075;48.390;17.598;2024-02-21T06:50:52;100510.88;;;13.03;49.37
76603;BME280;65075;48.390;17.598;2024-02-21T06:53:17;100491.97;;;12.38;50.92
76603;BME280;65075;48.390;17.598;2024-02-21T06:55:45;100500.56;;;12.52;51.18
76603;BME280;65075;48.390;17.598;2024-02-21T06:58:10;100508.06;;;13.30;50.24
76603;BME280;65075;48.390;17.598;2024-02-21T07:00:39;100516.81;;;12.37;51.37
76603;BME280;65075;48.390;17.598;2024-02-21T07:03:06;100521.16;;;12.59;51.75
76603;BME280;65075;48.390;17.598;2024-02-21T07:05:33;100489.63;;;12.52;51.26
76603;BME280;65075;48.390;17.598;2024-02-21T07:07:59;100478.00;;;13.03;49.62
76603;BME280;65075;48.390;17.598;2024-02-21T07:10:26;100516.06;;;13.94;48.03
76603;BME280;65075;48.390;17.598;2024-02-21T07:12:55;100508.56;;;13.69;48.10
76603;BME280;65075;48.390;17.598;2024-02-21T07:15:22;100517.13;;;13.36;49.52
76603;BME280;65075;48.390;17.598;2024-02-21T07:17:53;100530.94;;;13.51;48.68
76603;BME280;65075;48.390;17.598;2024-02-21T07:20:20;100520.28;;;14.16;47.04
76603;BME280;65075;48.390;17.598;2024-02-21T07:22:47;100520.81;;;14.18;47.38
76603;BME280;65075;48.390;17.598;2024-02-21T07:25:13;100510.56;;;13.37;49.23
76603;BME280;65075;48.390;17.598;2024-02-21T07:27:40;100513.53;;;13.77;48.12
76603;BME280;65075;48.390;17.598;2024-02-21T07:30:09;100516.56;;;13.34;49.25
76603;BME280;65075;48.390;17.598;2024-02-21T07:32:36;100512.47;;;13.31;48.68
76603;BME280;65075;48.390;17.598;2024-02-21T07:35:06;100508.69;;;13.42;47.70
76603;BME280;65075;48.390;17.598;2024-02-21T07:37:37;100503.94;;;13.74;46.85
76603;BME280;65075;48.390;17.598;2024-02-21T07:40:13;100481.94;;;12.81;48.07
76603;BME280;65075;48.390;17.598;2024-02-21T07:42:42;100502.03;;;13.28;48.24
76603;BME280;65075;48.390;17.598;2024-02-21T07:45:10;100514.97;;;12.69;49.78
76603;BME280;65075;48.390;17.598;2024-02-21T07:47:37;100514.44;;;13.41;47.19
76603;BME280;65075;48.390;17.598;2024-02-21T07:50:07;100484.34;;;11.54;51.12
76603;BME280;65075;48.390;17.598;2024-02-21T07:52:34;100513.72;;;13.60;47.02
76603;BME280;65075;48.390;17.598;2024-02-21T07:55:01;100515.59;;;12.23;49.74
76603;BME280;65075;48.390;17.598;2024-02-21T07:57:30;100514.41;;;10.82;53.33
76603;BME280;65075;48.390;17.598;2024-02-21T07:59:57;100486.13;;;10.38;53.60
76603;BME280;65075;48.390;17.598;2024-02-21T08:02:24;100501.88;;;10.81;53.74
76603;BME280;65075;48.390;17.598;2024-02-21T08:04:51;100495.28;;;11.54;51.74
76603;BME280;65075;48.390;17.598;2024-02-21T08:07:18;100506.66;;;11.67;51.63
76603;BME280;65075;48.390;17.598;2024-02-21T08:09:45;100498.47;;;12.32;49.96
76603;BME280;65075;48.390;17.598;2024-02-21T08:12:11;100495.25;;;11.70;50.65
76603;BME280;65075;48.390;17.598;2024-02-21T08:14:38;100502.72;;;13.08;48.66
76603;BME280;65075;48.390;17.598;2024-02-21T08:17:05;100493.81;;;11.46;50.91
76603;BME280;65075;48.390;17.598;2024-02-21T08:19:35;100494.34;;;11.81;51.07
76603;BME280;65075;48.390;17.598;2024-02-21T08:22:02;100482.19;;;11.72;51.02
76603;BME280;65075;48.390;17.598;2024-02-21T08:24:30;100474.00;;;11.99;50.09
76603;BME280;65075;48.390;17.598;2024-02-21T08:26:56;100481.72;;;12.55;49.20
76603;BME280;65075;48.390;17.598;2024-02-21T08:29:23;100482.78;;;12.86;48.35
76603;BME280;65075;48.390;17.598;2024-02-21T08:31:49;100494.63;;;12.60;48.33
76603;BME280;65075;48.390;17.598;2024-02-21T08:34:16;100485.44;;;12.18;51.04
76603;BME280;65075;48.390;17.598;2024-02-21T08:36:44;100466.66;;;12.90;48.49
76603;BME280;65075;48.390;17.598;2024-02-21T08:39:11;100476.97;;;12.46;49.70
76603;BME280;65075;48.390;17.598;2024-02-21T08:41:42;100485.50;;;12.49;50.02
76603;BME280;65075;48.390;17.598;2024-02-21T08:44:08;100473.22;;;13.72;47.54
76603;BME280;65075;48.390;17.598;2024-02-21T08:46:35;100446.41;;;12.59;49.80
76603;BME280;65075;48.390;17.598;2024-02-21T08:49:04;100485.66;;;14.00;48.17
76603;BME280;65075;48.390;17.598;2024-02-21T08:51:31;100446.25;;;13.07;47.78
76603;BME280;65075;48.390;17.598;2024-02-21T08:53:58;100441.41;;;12.51;48.79
76603;BME280;65075;48.390;17.598;2024-02-21T08:56:25;100471.50;;;13.09;48.87
76603;BME280;65075;48.390;17.598;2024-02-21T08:58:51;100472.13;;;12.26;49.38
76603;BME280;65075;48.390;17.598;2024-02-21T09:01:18;100472.19;;;12.95;48.75
76603;BME280;65075;48.390;17.598;2024-02-21T09:03:45;100446.66;;;13.88;46.44
76603;BME280;65075;48.390;17.598;2024-02-21T09:06:13;100468.63;;;12.36;50.60
76603;BME280;65075;48.390;17.598;2024-02-21T09:08:40;100475.44;;;12.60;51.94
76603;BME280;65075;48.390;17.598;2024-02-21T09:11:08;100444.56;;;12.06;53.21
76603;BME280;65075;48.390;17.598;2024-02-21T09:13:35;100454.19;;;12.72;50.95
76603;BME280;65075;48.390;17.598;2024-02-21T09:16:02;100470.72;;;13.19;49.69
76603;BME280;65075;48.390;17.598;2024-02-21T09:18:30;100471.03;;;13.80;46.96
76603;BME280;65075;48.390;17.598;2024-02-21T09:20:57;100465.16;;;14.33;46.33
76603;BME280;65075;48.390;17.598;2024-02-21T09:23:26;100443.44;;;13.02;49.80
76603;BME280;65075;48.390;17.598;2024-02-21T09:25:54;100453.41;;;13.13;49.21
76603;BME280;65075;48.390;17.598;2024-02-21T09:28:20;100430.34;;;13.61;48.28
76603;BME280;65075;48.390;17.598;2024-02-21T09:30:47;100426.34;;;12.85;50.01
76603;BME280;65075;48.390;17.598;2024-02-21T09:33:13;100455.78;;;13.00;49.93
76603;BME280;65075;48.390;17.598;2024-02-21T09:35:41;100427.00;;;14.62;46.56
76603;BME280;65075;48.390;17.598;2024-02-21T09:38:08;100463.78;;;15.01;45.09
76603;BME280;65075;48.390;17.598;2024-02-21T09:40:34;100459.16;;;14.51;46.12
76603;BME280;65075;48.390;17.598;2024-02-21T09:43:05;100416.56;;;14.74;44.03
76603;BME280;65075;48.390;17.598;2024-02-21T09:45:35;100470.44;;;14.55;45.89
76603;BME280;65075;48.390;17.598;2024-02-21T09:50:57;100455.16;;;15.58;41.95
76603;BME280;65075;48.390;17.598;2024-02-21T09:53:27;100456.75;;;16.72;38.78
76603;BME280;65075;48.390;17.598;2024-02-21T09:55:54;100449.41;;;16.57;38.81
76603;BME280;65075;48.390;17.598;2024-02-21T09:58:23;100454.09;;;13.98;43.91
76603;BME280;65075;48.390;17.598;2024-02-21T10:00:50;100459.81;;;13.86;44.88
76603;BME280;65075;48.390;17.598;2024-02-21T10:03:17;100414.25;;;15.36;40.75
76603;BME280;65075;48.390;17.598;2024-02-21T10:05:48;100457.69;;;15.50;41.34
76603;BME280;65075;48.390;17.598;2024-02-21T10:08:16;100453.31;;;14.22;44.74
76603;BME280;65075;48.390;17.598;2024-02-21T10:10:45;100457.59;;;15.70;41.25
76603;BME280;65075;48.390;17.598;2024-02-21T10:13:29;100458.47;;;13.94;44.93
76603;BME280;65075;48.390;17.598;2024-02-21T10:16:07;100451.66;;;14.16;44.83
76603;BME280;65075;48.390;17.598;2024-02-21T10:18:36;100430.75;;;15.36;42.98
76603;BME280;65075;48.390;17.598;2024-02-21T10:21:06;100445.41;;;14.81;42.61
76603;BME280;65075;48.390;17.598;2024-02-21T10:23:47;100433.91;;;16.95;39.50
76603;BME280;65075;48.390;17.598;2024-02-21T10:26:15;100434.53;;;18.48;35.80
76603;BME280;65075;48.390;17.598;2024-02-21T10:28:42;100431.28;;;16.08;40.66
76603;BME280;65075;48.390;17.598;2024-02-21T10:31:11;100431.88;;;15.25;42.59
76603;BME280;65075;48.390;17.598;2024-02-21T10:36:26;100420.44;;;17.46;38.47
76603;BME280;65075;48.390;17.598;2024-02-21T10:38:52;100408.09;;;14.35;44.59
76603;BME280;65075;48.390;17.598;2024-02-21T10:41:22;100413.50;;;15.85;40.94
76603;BME280;65075;48.390;17.598;2024-02-21T10:43:54;100390.59;;;15.99;41.97
76603;BME280;65075;48.390;17.598;2024-02-21T10:46:24;100373.25;;;17.66;37.18
76603;BME280;65075;48.390;17.598;2024-02-21T10:49:11;100387.63;;;16.92;39.45
76603;BME280;65075;48.390;17.598;2024-02-21T10:51:43;100386.06;;;16.57;39.40
76603;BME280;65075;48.390;17.598;2024-02-21T10:54:35;100399.00;;;14.29;42.99
76603;BME280;65075;48.390;17.598;2024-02-21T10:57:05;100383.03;;;14.92;42.67
76603;BME280;65075;48.390;17.598;2024-02-21T10:59:34;100385.94;;;16.68;38.53
76603;BME280;65075;48.390;17.598;2024-02-21T11:02:04;100379.75;;;14.24;43.65
76603;BME280;65075;48.390;17.598;2024-02-21T11:04:33;100382.44;;;13.84;44.53
76603;BME280;65075;48.390;17.598;2024-02-21T11:07:03;100373.19;;;13.23;45.85
76603;BME280;65075;48.390;17.598;2024-02-21T11:09:33;100381.53;;;13.53;45.07
76603;BME280;65075;48.390;17.598;2024-02-21T11:12:05;100370.25;;;13.50;46.35
76603;BME280;65075;48.390;17.598;2024-02-21T11:14:33;100362.31;;;13.43;47.64
76603;BME280;65075;48.390;17.598;2024-02-21T11:17:15;100352.78;;;13.71;45.74
76603;BME280;65075;48.390;17.598;2024-02-21T11:20:12;100343.41;;;13.47;47.16
76603;BME280;65075;48.390;17.598;2024-02-21T11:22:44;100349.09;;;15.27;43.70
76603;BME280;65075;48.390;17.598;2024-02-21T11:25:11;100352.84;;;14.06;46.26
76603;BME280;65075;48.390;17.598;2024-02-21T11:27:38;100361.16;;;13.29;48.10
76603;BME280;65075;48.390;17.598;2024-02-21T11:30:30;100355.47;;;13.41;48.21
76603;BME280;65075;48.390;17.598;2024-02-21T11:33:06;100336.75;;;15.29;42.39
76603;BME280;65075;48.390;17.598;2024-02-21T11:35:35;100329.72;;;13.62;47.40
76603;BME280;65075;48.390;17.598;2024-02-21T11:38:13;100347.09;;;13.98;45.36
76603;BME280;65075;48.390;17.598;2024-02-21T11:40:46;100329.78;;;13.87;45.68
76603;BME280;65075;48.390;17.598;2024-02-21T11:43:16;100339.03;;;15.02;43.15
76603;BME280;65075;48.390;17.598;2024-02-21T11:45:46;100339.59;;;15.68;42.32
76603;BME280;65075;48.390;17.598;2024-02-21T11:48:13;100338.03;;;14.53;43.90
76603;BME280;65075;48.390;17.598;2024-02-21T11:50:40;100330.34;;;14.04;44.76
76603;BME280;65075;48.390;17.598;2024-02-21T11:53:07;100320.34;;;15.09;40.49
76603;BME280;65075;48.390;17.598;2024-02-21T11:55:36;100312.13;;;13.33;45.39
76603;BME280;65075;48.390;17.598;2024-02-21T11:58:01;100320.59;;;13.31;45.02
76603;BME280;65075;48.390;17.598;2024-02-21T12:00:27;100314.28;;;13.31;45.53
76603;BME280;65075;48.390;17.598;2024-02-21T12:02:52;100316.25;;;13.50;46.12
76603;BME280;65075;48.390;17.598;2024-02-21T12:05:19;100313.53;;;14.81;43.29
76603;BME280;65075;48.390;17.598;2024-02-21T12:07:45;100310.81;;;13.55;45.53
76603;BME280;65075;48.390;17.598;2024-02-21T12:10:12;100313.56;;;13.55;44.30
76603;BME280;65075;48.390;17.598;2024-02-21T12:12:38;100302.31;;;13.57;45.34
76603;BME280;65075;48.390;17.598;2024-02-21T12:15:05;100300.19;;;14.35;44.49
76603;BME280;65075;48.390;17.598;2024-02-21T12:17:35;100298.06;;;13.09;46.67
76603;BME280;65075;48.390;17.598;2024-02-21T12:20:04;100294.03;;;13.42;46.38
76603;BME280;65075;48.390;17.598;2024-02-21T12:22:31;100285.06;;;13.97;44.97
76603;BME280;65075;48.390;17.598;2024-02-21T12:24:58;100274.94;;;13.92;45.34
76603;BME280;65075;48.390;17.598;2024-02-21T12:27:25;100266.72;;;14.32;43.97
76603;BME280;65075;48.390;17.598;2024-02-21T12:29:56;100271.31;;;13.61;44.95
76603;BME280;65075;48.390;17.598;2024-02-21T12:32:23;100249.69;;;13.95;44.98
76603;BME280;65075;48.390;17.598;2024-02-21T12:35:09;100207.41;;;13.36;46.50
76603;BME280;65075;48.390;17.598;2024-02-21T12:37:38;100257.06;;;13.59;46.46
76603;BME280;65075;48.390;17.598;2024-02-21T12:40:05;100239.50;;;13.50;46.16
76603;BME280;65075;48.390;17.598;2024-02-21T12:42:34;100248.22;;;13.17;46.06
76603;BME280;65075;48.390;17.598;2024-02-21T12:45:02;100246.38;;;13.63;45.59
76603;BME280;65075;48.390;17.598;2024-02-21T12:47:30;100210.19;;;13.41;45.67
76603;BME280;65075;48.390;17.598;2024-02-21T12:49:57;100244.19;;;14.00;46.00